Surface/Precipitation History
02/08/2018 18:09  to  2/9/2018 18:09
Change End Date:
Date/Time
(MDT)
Sf
Temp Chem Water Layer Surface Precipitation
Sfc Pvt Sub Frz Factor Pct Dpth DpthThk IcePct Cond Salin FI Type Intens Accum Rate
02/09/2018 17:59 Ice Warning 12.9F - 26F 32F 5 1% - - 98% 1 mhos 398 - None None - -
02/09/2018 17:56 Ice Warning 12.9F - 26F 32F 5 1% - - 98% 1 mhos 393 - Yes - - -
02/09/2018 17:49 Ice Warning 13.1F - 26F 32F 5 1% - - 98% 1 mhos 392 - Yes - - -
02/09/2018 17:41 Ice Warning 13.6F - 26F 32F 5 1% - - 98% 1 mhos 377 - Yes - - -
02/09/2018 17:39 Ice Warning 13.8F - 26F 32F 5 1% - - 98% 1 mhos 373 - Yes - - -
02/09/2018 17:29 Ice Warning 14.2F - 26F 32F 5 1% - - 98% 1 mhos 368 - None None - -
02/09/2018 17:26 Ice Warning 14.5F - 26F 32F 5 1% - - 98% 1 mhos 363 - None None - -
02/09/2018 17:19 Ice Warning 14.4F - 26F 32F 5 1% - - 98% 1 mhos 378 - None None - -
02/09/2018 17:11 Ice Warning 14.7F - 26F 32F 5 1% - - 98% 1 mhos 368 - None None - -
02/09/2018 17:09 Ice Warning 14.7F - 26F 32F 5 1% - - 98% 1 mhos 372 - None None - -
02/09/2018 16:59 Ice Warning 15.3F - 26F 32F 5 1% - - 98% 1 mhos 362 - None None - -
02/09/2018 16:56 Ice Warning 15.3F - 26F 32F 5 1% - - 98% 1 mhos 364 - None None - -
02/09/2018 16:49 Dry 16.0F - 26F - - - - - - 1 mhos 349 - None None - -
02/09/2018 16:41 Ice Warning 16.5F - 26F 32F 5 1% - - 98% 1 mhos 341 - None None - -
02/09/2018 16:39 Ice Warning 16.5F - 26F 32F 5 1% - - 98% 1 mhos 343 - None None - -
Date/Time
(MDT)
Sf
Temp Chem Water Layer Surface Precipitation
Sfc Pvt Sub Frz Factor Pct Dpth DpthThk IcePct Cond Salin FI Type Intens Accum Rate
02/09/2018 16:29 Ice Warning 17.1F - 26F 32F 5 1% - - 98% 1 mhos 341 - None None - -
02/09/2018 16:26 Ice Warning 16.9F - 26F 32F 5 1% - - 98% 1 mhos 344 - Yes - - -
02/09/2018 16:19 Ice Warning 17.4F - 26F 32F 5 1% - - 98% 1 mhos 332 - None None - -
02/09/2018 16:11 Ice Warning 17.8F - 26F 32F 5 1% - - 98% 1 mhos 328 - None None - -
02/09/2018 16:09 Ice Warning 18.0F - 26F 32F 5 1% - - 98% 1 mhos 328 - Yes - - -
02/09/2018 15:59 Ice Warning 18.1F - 26F 32F 5 1% - - 98% 1 mhos 321 - None None - -
02/09/2018 15:56 Ice Warning 18.3F - 26F 32F 5 1% - - 98% 1 mhos 321 - None None - -
02/09/2018 15:49 Ice Warning 18.9F - 26F 32F 5 1% - - 98% 1 mhos 322 - None None - -
02/09/2018 15:41 Dry 19.0F - 26F - - - - - - 1 mhos 323 - None None - -
02/09/2018 15:39 Dry 19.0F - 26F - - - - - - 1 mhos 321 - None None - -
02/09/2018 15:29 Dry 19.9F - 26F - - - - - - 1 mhos 311 - None None - -
02/09/2018 15:26 Dry 20.3F - 26F - - - - - - 1 mhos 308 - Yes - - -
02/09/2018 15:19 Ice Warning 21.0F - 26F 32F 5 1% - - 98% 1 mhos 290 - None None - -
02/09/2018 15:11 Ice Warning 21.4F - 26F 32F 5 1% - - 98% 1 mhos 295 - None None - -
02/09/2018 15:09 Ice Warning 21.4F - 26F 32F 5 1% - - 98% 1 mhos 299 - None None - -
Date/Time
(MDT)
Sf
Temp Chem Water Layer Surface Precipitation
Sfc Pvt Sub Frz Factor Pct Dpth DpthThk IcePct Cond Salin FI Type Intens Accum Rate
02/09/2018 14:59 Ice Warning 22.3F - 26F 32F 5 1% - - 98% 1 mhos 298 - None None - -
02/09/2018 14:56 Ice Warning 22.5F - 26F 32F 5 1% - - 98% 1 mhos 295 - None None - -
02/09/2018 14:49 Ice Warning 22.8F - 26F 32F 5 1% - - 98% 1 mhos 291 - None None - -
02/09/2018 14:41 Ice Warning 23.2F - 26F 32F 5 1% - - 98% 1 mhos 283 - None None - -
02/09/2018 14:38 Ice Warning 23.2F - 26F 32F 5 1% - - 98% 1 mhos 283 - None None - -
02/09/2018 14:28 Ice Warning 23.7F - 26F 32F 5 1% - - 98% 1 mhos 265 - Yes - - -
02/09/2018 14:26 Ice Warning 24.1F - 26F 32F 5 1% - - 98% 1 mhos 258 - None None - -
02/09/2018 14:18 Error 24.4F - 26F - - - - - - 1 mhos 232 - None None - -
02/09/2018 14:11 Error 24.3F - 26F - - - - - - 1 mhos 219 - None None - -
02/09/2018 14:08 Error 24.8F - 26F - - - - - - 1 mhos 211 - Yes - - -
02/09/2018 13:58 Error 23.9F - 26F - - - - - - 1 mhos 207 - None None - -
02/09/2018 13:56 Error 23.9F - 26F - - - - - - 1 mhos 207 - None None - -
02/09/2018 13:48 Error 23.5F - 26F - - - - - - 1 mhos 204 - None None - -
02/09/2018 13:41 Error 23.5F - 26F - - - - - - 1 mhos 206 - None None - -
02/09/2018 13:38 Error 23.2F - 26F - - - - - - 1 mhos 209 - Yes - - -
Date/Time
(MDT)
Sf
Temp Chem Water Layer Surface Precipitation
Sfc Pvt Sub Frz Factor Pct Dpth DpthThk IcePct Cond Salin FI Type Intens Accum Rate
02/09/2018 13:28 Error 23.4F - 26F - - - - - - 1 mhos 206 - None None - -
02/09/2018 13:26 Error 23.2F - 26F - - - - - - 1 mhos 206 - None None - -
02/09/2018 13:18 Error 23.7F - 26F - - - - - - 1 mhos 193 - None None - -
02/09/2018 13:11 Error 23.5F - 26F - - - - - - 1 mhos 193 - Yes - - -
02/09/2018 13:08 Error 23.4F - 26F - - - - - - 1 mhos 193 - None None - -
02/09/2018 12:58 Error 22.8F - 27F - - - - - - 1 mhos 191 - None None - -
02/09/2018 12:56 Error 22.8F - 27F - - - - - - 1 mhos 190 - None None - -
02/09/2018 12:48 Error 23.0F - 27F - - - - - - 1 mhos 183 - None None - -
02/09/2018 12:41 Error 23.2F - 27F - - - - - - 1 mhos 179 - None None - -
02/09/2018 12:38 Error 23.5F - 27F - - - - - - 1 mhos 174 - None None - -
02/09/2018 12:28 Error 23.5F - 27F - - - - - - 1 mhos 175 - Yes - - -
02/09/2018 12:26 Error 23.5F - 27F - - - - - - 1 mhos 178 - None None - -
02/09/2018 12:18 Error 24.6F - 27F - - - - - - 1 mhos 157 - None None - -
02/09/2018 12:11 Error 24.1F - 27F - - - - - - 1 mhos 150 - None None - -
02/09/2018 12:08 Error 23.7F - 27F - - - - - - 1 mhos 149 - None None - -
Date/Time
(MDT)
Sf
Temp Chem Water Layer Surface Precipitation
Sfc Pvt Sub Frz Factor Pct Dpth DpthThk IcePct Cond Salin FI Type Intens Accum Rate
02/09/2018 11:58 Error 24.1F - 27F - - - - - - 1 mhos 122 - None None - -
02/09/2018 11:56 Error 23.4F - 27F - - - - - - 1 mhos 123 - None None - -
02/09/2018 11:48 Error 21.4F - 27F - - - - - - 1 mhos 122 - Yes - - -
02/09/2018 11:41 Error 19.9F - 27F - - - - - - 0 mhos 123 - Yes - - -
02/09/2018 11:38 Error 19.2F - 27F - - - - - - 0 mhos 125 - None None - -
02/09/2018 11:28 Error 17.2F - 27F - - - - - - 0 mhos 133 - Yes - - -
02/09/2018 11:26 Error 17.1F - 27F - - - - - - 0 mhos 134 - Yes - - -
02/09/2018 11:17 Error 16.7F - 27F - - - - - - 0 mhos 132 - Yes - - -
02/09/2018 11:11 Error 16.2F - 27F - - - - - - 0 mhos 133 - Yes - - -
02/09/2018 11:07 Error 15.6F - 27F - - - - - - 0 mhos 134 - Yes - - -
02/09/2018 10:57 Error 15.1F - 28F - - - - - - 0 mhos 139 - Yes - - -
02/09/2018 10:56 Error 15.3F - 28F - - - - - - 0 mhos 138 - Yes - - -
02/09/2018 10:47 Error 15.4F - 28F - - - - - - 0 mhos 133 - Yes - - -
02/09/2018 10:41 Error 14.9F - 28F - - - - - - 0 mhos 133 - None None - -
02/09/2018 10:37 Error 14.2F - 28F - - - - - - 0 mhos 136 - None None - -
Date/Time
(MDT)
Sf
Temp Chem Water Layer Surface Precipitation
Sfc Pvt Sub Frz Factor Pct Dpth DpthThk IcePct Cond Salin FI Type Intens Accum Rate
02/09/2018 10:27 Error 13.3F - 28F - - - - - - 0 mhos 138 - None None - -
02/09/2018 10:26 Error 13.3F - 28F - - - - - - 0 mhos 138 - Yes - - -
02/09/2018 10:17 Error 13.3F - 28F - - - - - - 0 mhos 138 - None None - -
02/09/2018 10:11 Error 12.9F - 28F - - - - - - 0 mhos 138 - None None - -
02/09/2018 10:07 Error 12.7F - 28F - - - - - - 0 mhos 138 - None None - -
02/09/2018 09:57 Ice Warning 12.2F - 28F 32F 95 0% - - 99% 0 mhos 139 - None None - -
02/09/2018 09:56 Ice Warning 12.2F - 28F 32F 95 0% - - 99% 0 mhos 138 - None None - -
02/09/2018 09:47 Ice Warning 11.7F - 28F 32F 95 0% - - 99% 0 mhos 139 - None None - -
02/09/2018 09:41 Error 11.7F - 28F - - - - - - 0 mhos 136 - None None - -
02/09/2018 09:37 Ice Warning 11.3F - 28F 32F 95 0% - - 99% 0 mhos 136 - None None - -
02/09/2018 09:27 Error 10.4F - 28F - - - - - - 0 mhos 135 - None None - -
02/09/2018 09:26 Ice Warning 10.2F - 28F 32F 95 0% - - 99% 0 mhos 135 - None None - -
02/09/2018 09:17 Ice Warning 9.5F - 29F 32F 95 0% - - 99% 0 mhos 137 - None None - -
02/09/2018 09:11 Ice Warning 9.3F - 28F 32F 95 0% - - 99% 0 mhos 134 - None None - -
02/09/2018 09:07 Ice Warning 9.3F - 29F 32F 95 0% - - 99% 0 mhos 133 - None None - -
Date/Time
(MDT)
Sf
Temp Chem Water Layer Surface Precipitation
Sfc Pvt Sub Frz Factor Pct Dpth DpthThk IcePct Cond Salin FI Type Intens Accum Rate
02/09/2018 08:57 Ice Warning 9.3F - 29F 32F 95 0% - - 100% 0 mhos 127 - None None - -
02/09/2018 08:56 Ice Warning 9.3F - 29F 32F 95 0% - - 100% 0 mhos 126 - None None - -
02/09/2018 08:47 Ice Warning 9.3F - 29F 32F 95 0% - - 100% 0 mhos 122 - Yes - - -
02/09/2018 08:41 Ice Warning 9.1F - 29F 32F 95 0% - - 100% 0 mhos 120 - None None - -
02/09/2018 08:37 Ice Warning 9.0F - 29F 32F 95 0% - - 100% 0 mhos 119 - None None - -
02/09/2018 08:27 Ice Warning 8.4F - 29F 32F 90 0% - - 100% 0 mhos 119 - None None - -
02/09/2018 08:26 Ice Warning 8.4F - 29F 32F 90 0% - - 100% 0 mhos 118 - None None - -
02/09/2018 08:17 Ice Warning 8.1F - 29F 32F 90 0% - - 100% 0 mhos 117 - None None - -
02/09/2018 08:11 Ice Warning 8.4F - 29F 32F 90 0% - - 100% 0 mhos 113 - Yes - - -
02/09/2018 08:07 Ice Warning 8.4F - 29F 32F 85 0% - - 100% 0 mhos 111 - None None - -
02/09/2018 07:57 Ice Warning 8.4F - 29F 32F 65 0% - - 100% 0 mhos 110 - None None - -
02/09/2018 07:56 Ice Warning 8.4F - 29F 32F 65 0% - - 100% 0 mhos 110 - None None - -
02/09/2018 07:47 Ice Warning 8.4F - 30F 32F 5 0% - - 100% 0 mhos 114 - None None - -
02/09/2018 07:41 Ice Warning 8.1F - 30F 32F 5 0% - - 100% 0 mhos 115 - None None - -
02/09/2018 07:37 Ice Warning 8.2F - 30F 32F 5 0% - - 100% 0 mhos 113 - None None - -
Date/Time
(MDT)
Sf
Temp Chem Water Layer Surface Precipitation
Sfc Pvt Sub Frz Factor Pct Dpth DpthThk IcePct Cond Salin FI Type Intens Accum Rate
02/09/2018 07:27 Ice Warning 8.4F - 30F 32F 5 0% - - 100% 0 mhos 108 - None None - -
02/09/2018 07:26 Ice Warning 8.4F - 30F 32F 5 0% - - 100% 0 mhos 108 - None None - -
02/09/2018 07:16 Ice Warning 8.4F - 30F 32F 5 0% - - 100% 0 mhos 105 - None None - -
02/09/2018 07:11 Ice Warning 8.4F - 30F 32F 5 0% - - 100% 0 mhos 105 - Yes - - -
02/09/2018 07:06 Ice Warning 8.4F - 30F 32F 5 0% - - 100% 0 mhos 106 - Yes - - -
02/09/2018 06:58 Ice Warning 8.6F - 30F 32F 5 0% - - 100% 0 mhos 105 - Yes - - -
02/09/2018 06:56 Ice Warning 8.6F - 30F 32F 5 0% - - 100% 0 mhos 104 - Yes - - -
02/09/2018 06:46 Ice Warning 8.6F - 30F 32F 5 0% - - 100% 0 mhos 105 - None None - -
02/09/2018 06:41 Ice Warning 9.0F - 30F 32F 5 0% - - 100% 0 mhos 103 - None None - -
02/09/2018 06:36 Ice Warning 9.1F - 30F 32F 5 0% - - 100% 0 mhos 103 - Yes - - -
02/09/2018 06:26 Ice Warning 9.1F - 30F 32F 5 0% - - 100% 0 mhos 103 - Yes - - -
02/09/2018 06:26 Ice Warning 9.1F - 31F 32F 5 0% - - 100% 0 mhos 103 - Yes - - -
02/09/2018 06:16 Ice Warning 9.5F - 31F 32F 5 0% - - 100% 0 mhos 102 - None None - -
02/09/2018 06:12 Ice Warning 10.0F - 31F 32F 5 0% - - 100% 0 mhos 101 - None None - -
02/09/2018 06:06 Ice Warning 9.7F - 31F 32F 5 0% - - 100% 0 mhos 100 - Yes - - -
Date/Time
(MDT)
Sf
Temp Chem Water Layer Surface Precipitation
Sfc Pvt Sub Frz Factor Pct Dpth DpthThk IcePct Cond Salin FI Type Intens Accum Rate
02/09/2018 05:56 Ice Warning 9.3F - 31F 32F 5 0% - - 100% 0 mhos 101 - Yes - - -
02/09/2018 05:56 Ice Warning 9.3F - 31F 32F 5 0% - - 100% 0 mhos 101 - Yes - - -
02/09/2018 05:46 Ice Warning 9.3F - 31F 32F 5 0% - - 100% 0 mhos 102 - None None - -
02/09/2018 05:41 Ice Warning 9.3F - 31F 32F 5 0% - - 100% 0 mhos 101 - None None - -
02/09/2018 05:36 Ice Warning 9.3F - 31F 32F 5 0% - - 100% 0 mhos 102 - Yes - - -
02/09/2018 05:26 Ice Warning 9.5F - 31F 32F 5 0% - - 100% 0 mhos 101 - None None - -
02/09/2018 05:16 Ice Warning 9.5F - 31F 32F 5 0% - - 100% 0 mhos 101 - None None - -
02/09/2018 05:11 Ice Warning 9.7F - 31F 32F 5 0% - - 100% 0 mhos 100 - Yes - - -
02/09/2018 05:06 Ice Warning 9.9F - 31F 32F 5 0% - - 100% 0 mhos 99 - Yes - - -
02/09/2018 04:56 Ice Warning 9.9F - 31F 32F 5 0% - - 100% 0 mhos 101 - Yes - - -
02/09/2018 04:56 Ice Warning 10.0F - 31F 32F 5 0% - - 100% 0 mhos 100 - Yes - - -
02/09/2018 04:46 Ice Warning 10.0F - 31F 32F 5 0% - - 100% 0 mhos 100 - Yes - - -
02/09/2018 04:41 Ice Warning 10.2F - 31F 32F 5 0% - - 100% 0 mhos 99 - Yes - - -
02/09/2018 04:36 Ice Warning 10.9F - 31F 32F 5 0% - - 100% 0 mhos 99 - Yes - - -
02/09/2018 04:26 Ice Warning 10.2F - 31F 32F 5 0% - - 100% 0 mhos 99 - Yes - - -
Date/Time
(MDT)
Sf
Temp Chem Water Layer Surface Precipitation
Sfc Pvt Sub Frz Factor Pct Dpth DpthThk IcePct Cond Salin FI Type Intens Accum Rate
02/09/2018 04:26 Ice Warning 10.2F - 31F 32F 5 0% - - 100% 0 mhos 99 - Yes - - -
02/09/2018 04:16 Ice Warning 10.2F - 31F 32F 5 0% - - 100% 0 mhos 96 - Yes - - -
02/09/2018 04:11 Ice Warning 10.4F - 31F 32F 5 0% - - 100% 0 mhos 95 - Yes - - -
02/09/2018 04:06 Ice Watch 10.4F - 31F - 5 - - - - 0 mhos 95 - None None - -
02/09/2018 03:57 Ice Watch 10.4F - 31F - 5 - - - - 0 mhos 95 - None None - -
02/09/2018 03:56 Ice Watch 10.4F - 31F - 5 - - - - 0 mhos 96 - None None - -
02/09/2018 03:46 Ice Watch 10.8F - 31F - 5 - - - - 0 mhos 93 - None None - -
02/09/2018 03:41 Ice Watch 10.8F - 31F - 5 - - - - 0 mhos 93 - None None - -
02/09/2018 03:36 Ice Watch 10.6F - 31F - 5 - - - - 0 mhos 94 - None None - -
02/09/2018 03:26 Ice Watch 10.6F - 31F - 5 - - - - 0 mhos 94 - None None - -
02/09/2018 03:26 Ice Watch 10.6F - 31F - 5 - - - - 0 mhos 94 - None None - -
02/09/2018 03:16 Ice Watch 10.8F - 31F - 5 - - - - 0 mhos 93 - None None - -
02/09/2018 03:10 Ice Watch 10.8F - 31F - 5 - - - - 0 mhos 97 - None None - -
02/09/2018 03:06 Ice Watch 10.9F - 31F - 5 - - - - 0 mhos 95 - None None - -
02/09/2018 02:56 Ice Watch 10.9F - 31F - 5 - - - - 0 mhos 96 - None None - -
Date/Time
(MDT)
Sf
Temp Chem Water Layer Surface Precipitation
Sfc Pvt Sub Frz Factor Pct Dpth DpthThk IcePct Cond Salin FI Type Intens Accum Rate
02/09/2018 02:46 Ice Watch 11.1F - 31F - 5 - - - - 0 mhos 94 - None None - -
02/09/2018 02:41 Ice Watch 11.1F - 31F - 5 - - - - 0 mhos 94 - None None - -
02/09/2018 02:36 Ice Watch 10.9F - 31F - 5 - - - - 0 mhos 96 - None None - -
02/09/2018 02:26 Ice Watch 11.1F - 31F - 5 - - - - 0 mhos 95 - None None - -
02/09/2018 02:26 Ice Watch 11.1F - 31F - 5 - - - - 0 mhos 95 - None None - -
02/09/2018 02:15 Ice Watch 11.1F - 31F - 5 - - - - 0 mhos 94 - None None - -
02/09/2018 02:10 Ice Watch 11.3F - 31F - 5 - - - - 0 mhos 95 - None None - -
02/09/2018 02:05 Ice Watch 11.1F - 31F - 5 - - - - 0 mhos 95 - None None - -
02/09/2018 01:56 Ice Watch 11.1F - 31F - 5 - - - - 0 mhos 96 - None None - -
02/09/2018 01:55 Ice Watch 11.1F - 31F - 5 - - - - 0 mhos 96 - None None - -
02/09/2018 01:45 Ice Watch 11.3F - 31F - 5 - - - - 0 mhos 95 - None None - -
02/09/2018 01:41 Ice Watch 11.3F - 31F - 5 - - - - 0 mhos 95 - None None - -
02/09/2018 01:35 Ice Watch 11.3F - 31F - 5 - - - - 0 mhos 95 - None None - -
02/09/2018 01:26 Ice Watch 11.5F - 31F - 5 - - - - 0 mhos 94 - None None - -
02/09/2018 01:25 Ice Watch 11.5F - 31F - 5 - - - - 0 mhos 94 - None None - -
Date/Time
(MDT)
Sf
Temp Chem Water Layer Surface Precipitation
Sfc Pvt Sub Frz Factor Pct Dpth DpthThk IcePct Cond Salin FI Type Intens Accum Rate
02/09/2018 01:15 Ice Watch 11.7F - 31F - 5 - - - - 0 mhos 94 - None None - -
02/09/2018 01:11 Ice Watch 11.7F - 31F - 5 - - - - 0 mhos 94 - None None - -
02/09/2018 01:05 Ice Watch 11.8F - 31F - 5 - - - - 0 mhos 94 - None None - -
02/09/2018 00:56 Ice Watch 12.2F - 31F - 5 - - - - 0 mhos 91 - None None - -
02/09/2018 00:55 Ice Watch 12.2F - 31F - 5 - - - - 0 mhos 92 - None None - -
02/09/2018 00:45 Ice Watch 12.4F - 31F - 5 - - - - 0 mhos 90 - None None - -
02/09/2018 00:42 Ice Watch 12.7F - 31F - 5 - - - - 0 mhos 90 - None None - -
02/09/2018 00:35 Ice Watch 12.6F - 31F - 5 - - - - 0 mhos 91 - None None - -
02/09/2018 00:27 Ice Watch 12.9F - 31F - 5 - - - - 0 mhos 90 - None None - -
02/09/2018 00:25 Ice Watch 12.9F - 31F - 5 - - - - 0 mhos 90 - None None - -
02/09/2018 00:15 Ice Watch 13.1F - 31F - 5 - - - - 0 mhos 89 - None None - -
02/09/2018 00:11 Ice Watch 12.9F - 31F - 5 - - - - 0 mhos 90 - None None - -
02/09/2018 00:05 Ice Watch 13.1F - 31F - 5 - - - - 0 mhos 90 - None None - -
02/08/2018 23:56 Ice Watch 13.3F - 31F - 5 - - - - 0 mhos 89 - None None - -
02/08/2018 23:55 Ice Watch 13.3F - 31F - 5 - - - - 0 mhos 89 - None None - -
Date/Time
(MDT)
Sf
Temp Chem Water Layer Surface Precipitation
Sfc Pvt Sub Frz Factor Pct Dpth DpthThk IcePct Cond Salin FI Type Intens Accum Rate
02/08/2018 23:45 Ice Watch 13.3F - 31F - 5 - - - - 0 mhos 90 - None None - -
02/08/2018 23:41 Ice Watch 13.5F - 31F - 5 - - - - 0 mhos 89 - None None - -
02/08/2018 23:35 Ice Watch 13.6F - 31F - 5 - - - - 0 mhos 89 - None None - -
02/08/2018 23:26 Ice Watch 14.0F - 31F - 5 - - - - 0 mhos 88 - None None - -
02/08/2018 23:25 Ice Watch 14.0F - 31F - 5 - - - - 0 mhos 89 - None None - -
02/08/2018 23:15 Ice Watch 14.0F - 31F - 5 - - - - 0 mhos 89 - None None - -
02/08/2018 23:11 Ice Watch 14.0F - 31F - 5 - - - - 0 mhos 90 - None None - -
02/08/2018 23:05 Ice Watch 14.2F - 31F - 5 - - - - 0 mhos 89 - None None - -
02/08/2018 22:56 Ice Watch 14.2F - 31F - 5 - - - - 0 mhos 87 - None None - -
02/08/2018 22:55 Ice Watch 14.4F - 31F - 5 - - - - 0 mhos 88 - None None - -
02/08/2018 22:45 Ice Watch 14.5F - 31F - 5 - - - - 0 mhos 88 - None None - -
02/08/2018 22:41 Ice Watch 14.7F - 31F - 5 - - - - 0 mhos 88 - None None - -
02/08/2018 22:35 Ice Watch 14.7F - 31F - 5 - - - - 0 mhos 90 - None None - -
02/08/2018 22:26 Dry 14.9F - 31F - - - - - - 0 mhos 87 - None None - -
02/08/2018 22:24 Dry 15.1F - 31F - - - - - - 0 mhos 86 - None None - -
Date/Time
(MDT)
Sf
Temp Chem Water Layer Surface Precipitation
Sfc Pvt Sub Frz Factor Pct Dpth DpthThk IcePct Cond Salin FI Type Intens Accum Rate
02/08/2018 22:14 Dry 15.1F - 31F - - - - - - 0 mhos 87 - None None - -
02/08/2018 22:11 Dry 15.3F - 32F - - - - - - 0 mhos 86 - None None - -
02/08/2018 22:04 Dry 15.3F - 31F - - - - - - 0 mhos 88 - None None - -
02/08/2018 21:56 Ice Watch 15.4F - 31F - 5 - - - - 0 mhos 88 - None None - -
02/08/2018 21:54 Ice Watch 15.4F - 31F - 5 - - - - 0 mhos 87 - None None - -
02/08/2018 21:44 Ice Watch 15.6F - 31F - 5 - - - - 0 mhos 88 - None None - -
02/08/2018 21:40 Ice Watch 15.6F - 31F - 5 - - - - 0 mhos 85 - None None - -
02/08/2018 21:34 Dry 15.8F - 32F - - - - - - 0 mhos 85 - None None - -
02/08/2018 21:25 Ice Watch 16.2F - 32F - 5 - - - - 0 mhos 84 - None None - -
02/08/2018 21:24 Ice Watch 16.2F - 32F - 5 - - - - 0 mhos 86 - None None - -
02/08/2018 21:14 Dry 16.2F - 32F - - - - - - 0 mhos 84 - None None - -
02/08/2018 21:11 Dry 16.3F - 32F - - - - - - 0 mhos 85 - None None - -
02/08/2018 21:04 Dry 16.2F - 32F - - - - - - 0 mhos 87 - None None - -
02/08/2018 20:55 Dry 16.5F - 32F - - - - - - 0 mhos 86 - None None - -
02/08/2018 20:54 Dry 16.7F - 32F - - - - - - 0 mhos 84 - None None - -
Date/Time
(MDT)
Sf
Temp Chem Water Layer Surface Precipitation
Sfc Pvt Sub Frz Factor Pct Dpth DpthThk IcePct Cond Salin FI Type Intens Accum Rate
02/08/2018 20:44 Dry 16.9F - 32F - - - - - - 0 mhos 84 - None None - -
02/08/2018 20:40 Dry 16.9F - 32F - - - - - - 0 mhos 86 - None None - -
02/08/2018 20:34 Dry 16.9F - 32F - - - - - - 0 mhos 87 - None None - -
02/08/2018 20:25 Dry 17.2F - 32F - - - - - - 0 mhos 85 - None None - -
02/08/2018 20:24 Dry 17.2F - 32F - - - - - - 0 mhos 85 - None None - -
02/08/2018 20:14 Dry 17.8F - 32F - - - - - - 0 mhos 89 - None None - -
02/08/2018 20:10 Dry 17.8F - 32F - - - - - - 0 mhos 88 - None None - -
02/08/2018 20:04 Dry 18.3F - 32F - - - - - - 0 mhos 88 - None None - -
02/08/2018 19:55 Dry 18.1F - 32F - - - - - - 0 mhos 89 - None None - -
02/08/2018 19:54 Dry 18.1F - 32F - - - - - - 0 mhos 89 - None None - -
02/08/2018 19:44 Dry 18.5F - 32F - - - - - - 0 mhos 92 - None None - -
02/08/2018 19:40 Dry 18.5F - 32F - - - - - - 0 mhos 94 - None None - -
02/08/2018 19:34 Dry 18.9F - 32F - - - - - - 0 mhos 95 - None None - -
02/08/2018 19:25 Dry 19.2F - 32F - - - - - - 0 mhos 91 - None None - -
02/08/2018 19:24 Dry 19.2F - 32F - - - - - - 0 mhos 92 - None None - -
Date/Time
(MDT)
Sf
Temp Chem Water Layer Surface Precipitation
Sfc Pvt Sub Frz Factor Pct Dpth DpthThk IcePct Cond Salin FI Type Intens Accum Rate
02/08/2018 19:14 Dry 19.4F - 32F - - - - - - 0 mhos 93 - None None - -
02/08/2018 19:10 Dry 19.6F - 32F - - - - - - 0 mhos 95 - None None - -
02/08/2018 19:04 Dry 20.1F - 32F - - - - - - 0 mhos 97 - None None - -
02/08/2018 18:55 Dry 20.7F - 32F - - - - - - 0 mhos 101 - None None - -
02/08/2018 18:54 Dry 20.7F - 32F - - - - - - 0 mhos 102 - None None - -
02/08/2018 18:43 Dry 21.4F - 32F - - - - - - 0 mhos 102 - None None - -
02/08/2018 18:40 Dry 21.7F - 32F - - - - - - 0 mhos 109 - None None - -
02/08/2018 18:33 Ice Warning 22.1F - 32F 32F 5 0% - - 99% 0 mhos 110 - None None - -
02/08/2018 18:25 Ice Warning 22.8F - 32F 32F 5 0% - - 99% 0 mhos 101 - None None - -
02/08/2018 18:23 Ice Warning 22.8F - 32F 32F 5 0% - - 99% 0 mhos 101 - None None - -
02/08/2018 18:13 Dry 23.5F - 32F - - - - - - 0 mhos 93 - None None - -
02/08/2018 18:10 Dry 23.5F - 32F - - - - - - 0 mhos 93 - Yes - - -
Change End Date:

Copyright © 1998-2015 Vaisala, Inc.
All Rights Reserved
Send comments about the data to:
SCAN Web ® is a registered trademark of Vaisala, Inc.
SCAN Web Version 6.0